createdAt,value
2023-01-29T00:01:38.231Z,83.82
2023-01-29T00:04:05.863Z,83.80
2023-01-29T00:06:33.189Z,83.80
2023-01-29T00:09:00.268Z,83.78
2023-01-29T00:11:27.390Z,83.90
2023-01-29T00:13:54.529Z,83.95
2023-01-29T00:19:03.286Z,83.80
2023-01-29T00:21:32.811Z,83.76
2023-01-29T00:24:00.502Z,83.89
2023-01-29T00:26:28.168Z,83.95
2023-01-29T00:28:57.218Z,84.10
2023-01-29T00:31:25.373Z,84.08
2023-01-29T00:33:52.749Z,83.87
2023-01-29T00:36:21.281Z,84.16
2023-01-29T00:38:55.004Z,84.21
2023-01-29T00:41:35.992Z,84.19
2023-01-29T00:44:16.701Z,84.22
2023-01-29T00:46:44.191Z,84.29
2023-01-29T00:49:11.405Z,84.42
2023-01-29T00:51:39.450Z,84.26
2023-01-29T00:54:06.927Z,84.35
2023-01-29T00:56:37.494Z,84.39
2023-01-29T00:59:05.010Z,84.32
2023-01-29T01:01:44.719Z,84.38
2023-01-29T01:04:12.261Z,84.18
2023-01-29T01:06:40.431Z,84.14
2023-01-29T01:09:22.419Z,84.09
2023-01-29T01:11:49.216Z,84.13
2023-01-29T01:14:16.045Z,84.11
2023-01-29T01:16:42.756Z,84.22
2023-01-29T01:19:10.071Z,84.31
2023-01-29T01:21:36.899Z,84.15
2023-01-29T01:24:06.026Z,84.05
2023-01-29T01:26:33.152Z,83.81
2023-01-29T01:29:00.038Z,84.02
2023-01-29T01:31:27.096Z,84.07
2023-01-29T01:33:55.759Z,83.97
2023-01-29T01:36:22.814Z,83.84
2023-01-29T01:38:49.589Z,83.80
2023-01-29T01:41:20.271Z,83.79
2023-01-29T01:43:58.742Z,83.69
2023-01-29T01:46:28.535Z,83.71
2023-01-29T01:48:58.418Z,83.37
2023-01-29T01:51:28.913Z,83.39
2023-01-29T01:54:04.134Z,83.31
2023-01-29T01:56:40.939Z,83.02
2023-01-29T01:59:12.300Z,83.10
2023-01-29T02:01:42.946Z,83.10
2023-01-29T02:04:27.225Z,82.97
2023-01-29T02:07:09.864Z,82.98
2023-01-29T02:09:51.575Z,82.78
2023-01-29T02:12:19.735Z,82.79
2023-01-29T02:14:46.721Z,82.70
2023-01-29T02:17:16.798Z,82.63
2023-01-29T02:19:59.800Z,82.46
2023-01-29T02:22:49.565Z,82.35
2023-01-29T02:25:30.189Z,82.28
2023-01-29T02:28:13.929Z,82.19
2023-01-29T02:30:47.393Z,82.05
2023-01-29T02:33:18.143Z,82.10
2023-01-29T02:36:10.365Z,82.20
2023-01-29T02:39:05.788Z,82.15
2023-01-29T02:41:41.621Z,82.39
2023-01-29T02:44:37.590Z,82.35
2023-01-29T02:47:12.637Z,82.21
2023-01-29T02:50:04.247Z,82.06
2023-01-29T02:52:54.289Z,82.20
2023-01-29T02:55:32.871Z,82.13
2023-01-29T02:58:27.414Z,82.04
2023-01-29T03:01:01.153Z,81.83
2023-01-29T03:03:34.354Z,81.91
2023-01-29T03:06:07.869Z,81.84
2023-01-29T03:08:50.241Z,81.85
2023-01-29T03:11:18.289Z,81.66
2023-01-29T03:14:00.053Z,81.77
2023-01-29T03:16:36.314Z,81.97
2023-01-29T03:19:16.753Z,81.75
2023-01-29T03:21:51.623Z,81.76
2023-01-29T03:24:39.089Z,81.77
2023-01-29T03:27:23.783Z,81.64
2023-01-29T03:30:07.423Z,81.71
2023-01-29T03:32:36.208Z,81.86
2023-01-29T03:35:06.775Z,81.77
2023-01-29T03:37:39.406Z,81.78
2023-01-29T03:40:10.034Z,81.81
2023-01-29T03:42:53.751Z,81.91
2023-01-29T03:45:42.946Z,81.82
2023-01-29T03:48:18.576Z,81.80
2023-01-29T03:50:54.812Z,81.75
2023-01-29T03:53:25.298Z,81.79
2023-01-29T03:56:07.666Z,81.61
2023-01-29T03:58:42.963Z,81.85
2023-01-29T04:01:19.895Z,81.76
2023-01-29T04:03:53.178Z,81.78
2023-01-29T04:06:27.422Z,81.65
2023-01-29T04:08:57.147Z,81.61
2023-01-29T04:11:25.880Z,81.46
2023-01-29T04:13:52.867Z,81.42
2023-01-29T04:16:29.478Z,81.46
2023-01-29T04:18:57.176Z,81.42
2023-01-29T04:21:25.909Z,81.25
2023-01-29T04:23:52.765Z,81.09
2023-01-29T04:26:28.345Z,81.13
2023-01-29T04:29:21.665Z,80.97
2023-01-29T04:32:08.426Z,80.83
2023-01-29T04:34:52.318Z,80.76
2023-01-29T04:37:32.547Z,80.92
2023-01-29T04:40:15.206Z,80.82
2023-01-29T04:43:09.825Z,80.93
2023-01-29T04:45:50.490Z,81.01
2023-01-29T04:48:43.773Z,80.73
2023-01-29T04:51:18.532Z,80.79
2023-01-29T04:54:02.743Z,80.57
2023-01-29T04:56:32.830Z,80.59
2023-01-29T04:59:05.273Z,80.41
2023-01-29T05:01:34.319Z,80.38
2023-01-29T05:04:06.422Z,80.41
2023-01-29T05:06:33.518Z,80.17
2023-01-29T05:09:02.031Z,80.30
2023-01-29T05:11:31.978Z,80.11
2023-01-29T05:14:01.363Z,80.03
2023-01-29T05:16:41.981Z,79.81
2023-01-29T05:19:13.965Z,79.66
2023-01-29T05:21:44.283Z,79.77
2023-01-29T05:24:16.007Z,79.53
2023-01-29T05:26:59.365Z,79.71
2023-01-29T05:29:26.167Z,79.63
2023-01-29T05:31:52.911Z,79.71
2023-01-29T05:34:19.780Z,80.02
2023-01-29T05:36:46.584Z,79.47
2023-01-29T05:39:13.223Z,79.67
2023-01-29T05:41:40.190Z,79.50
2023-01-29T05:44:07.007Z,79.83
2023-01-29T05:46:33.728Z,79.54
2023-01-29T05:49:00.606Z,79.61
2023-01-29T05:51:27.440Z,79.28
2023-01-29T05:53:54.385Z,79.44
2023-01-29T05:56:21.208Z,79.29
2023-01-29T05:58:48.157Z,79.16
2023-01-29T06:01:18.540Z,79.12
2023-01-29T06:03:46.260Z,78.94
2023-01-29T06:06:13.110Z,79.21
2023-01-29T06:08:40.592Z,78.91
2023-01-29T06:11:08.861Z,78.68
2023-01-29T06:13:35.828Z,78.60
2023-01-29T06:16:06.895Z,78.92
2023-01-29T06:18:34.156Z,78.35
2023-01-29T06:21:02.865Z,78.41
2023-01-29T06:23:30.278Z,78.61
2023-01-29T06:26:01.491Z,78.54
2023-01-29T06:28:28.892Z,78.40
2023-01-29T06:31:11.520Z,78.49
2023-01-29T06:33:39.312Z,78.31
2023-01-29T06:36:06.638Z,78.23
2023-01-29T06:38:33.719Z,78.32
2023-01-29T06:41:00.620Z,77.91
2023-01-29T06:43:27.449Z,77.79
2023-01-29T06:45:56.706Z,77.66
2023-01-29T06:48:24.931Z,77.99
2023-01-29T06:50:55.108Z,77.37
2023-01-29T06:53:22.428Z,77.31
2023-01-29T06:55:53.103Z,76.85
2023-01-29T06:58:20.530Z,76.82
2023-01-29T07:00:47.480Z,76.90
2023-01-29T07:03:14.561Z,76.92
2023-01-29T07:05:41.335Z,76.90
2023-01-29T07:08:09.655Z,76.23
2023-01-29T07:10:36.607Z,76.27
2023-01-29T07:13:03.393Z,76.49
2023-01-29T07:15:30.175Z,75.99
2023-01-29T07:18:05.342Z,76.02
2023-01-29T07:20:32.161Z,75.41
2023-01-29T07:22:59.073Z,75.54
2023-01-29T07:25:26.293Z,75.43
2023-01-29T07:27:53.064Z,75.51
2023-01-29T07:30:19.924Z,75.04
2023-01-29T07:32:46.738Z,75.14
2023-01-29T07:35:14.102Z,74.90
2023-01-29T07:37:40.795Z,74.98
2023-01-29T07:40:11.273Z,74.58
2023-01-29T07:42:40.115Z,74.43
2023-01-29T07:45:07.545Z,74.63
2023-01-29T07:47:34.727Z,74.14
2023-01-29T07:50:01.618Z,74.25
2023-01-29T07:52:31.419Z,74.47
2023-01-29T07:54:58.121Z,74.41
2023-01-29T07:57:25.629Z,74.20
2023-01-29T07:59:52.414Z,73.91
2023-01-29T08:02:19.241Z,74.20
2023-01-29T08:04:46.099Z,74.02
2023-01-29T08:07:12.768Z,74.05
2023-01-29T08:09:39.550Z,74.21
2023-01-29T08:12:06.501Z,74.14
2023-01-29T08:14:33.337Z,74.04
2023-01-29T08:17:00.126Z,74.16
2023-01-29T08:19:27.012Z,74.01
2023-01-29T08:21:53.742Z,74.07
2023-01-29T08:24:20.525Z,74.01
2023-01-29T08:26:47.356Z,74.30
2023-01-29T08:29:14.261Z,74.12
2023-01-29T08:31:41.151Z,73.80
2023-01-29T08:34:08.000Z,73.74
2023-01-29T08:36:35.112Z,73.80
2023-01-29T08:39:02.142Z,73.67
2023-01-29T08:41:29.075Z,73.54
2023-01-29T08:43:57.291Z,72.98
2023-01-29T08:46:24.219Z,72.85
2023-01-29T08:48:51.018Z,72.53
2023-01-29T08:51:18.004Z,72.19
2023-01-29T08:53:44.837Z,72.18
2023-01-29T08:56:11.709Z,71.94
2023-01-29T08:58:38.455Z,72.25
2023-01-29T09:01:11.164Z,72.06
2023-01-29T09:03:41.184Z,72.19
2023-01-29T09:06:10.386Z,72.24
2023-01-29T09:08:37.501Z,71.90
2023-01-29T09:11:04.803Z,71.93
2023-01-29T09:13:31.859Z,71.80
2023-01-29T09:16:00.593Z,71.68
2023-01-29T09:18:27.864Z,71.48
2023-01-29T09:20:54.724Z,71.58
2023-01-29T09:23:21.783Z,71.25
2023-01-29T09:25:48.874Z,71.49
2023-01-29T09:28:17.692Z,71.25
2023-01-29T09:30:45.088Z,71.47
2023-01-29T09:33:12.444Z,71.52
2023-01-29T09:35:43.382Z,71.08
2023-01-29T09:38:10.811Z,71.00
2023-01-29T09:41:05.357Z,70.89
2023-01-29T09:43:45.548Z,71.13
2023-01-29T09:46:23.714Z,70.79
2023-01-29T09:49:02.124Z,69.95
2023-01-29T09:51:34.401Z,70.10
2023-01-29T09:54:15.049Z,70.45
2023-01-29T09:56:44.069Z,70.02
2023-01-29T09:59:13.849Z,70.15
2023-01-29T10:02:08.764Z,69.77
2023-01-29T10:04:55.588Z,69.54
2023-01-29T10:07:40.561Z,69.46
2023-01-29T10:10:15.949Z,69.13
2023-01-29T10:12:57.956Z,69.11
2023-01-29T10:15:52.454Z,68.50
2023-01-29T10:18:33.103Z,69.16
2023-01-29T10:21:29.721Z,69.05
2023-01-29T10:24:14.466Z,68.45
2023-01-29T10:26:41.657Z,68.57
2023-01-29T10:29:13.692Z,68.96
2023-01-29T10:31:40.820Z,68.96
2023-01-29T10:34:22.515Z,68.87
2023-01-29T10:36:49.958Z,68.25
2023-01-29T10:39:22.192Z,68.34
2023-01-29T10:42:01.935Z,68.69
2023-01-29T10:44:34.432Z,69.08
2023-01-29T10:47:30.374Z,68.61
2023-01-29T10:50:20.283Z,69.30
2023-01-29T10:52:59.923Z,68.78
2023-01-29T10:55:54.828Z,69.53
2023-01-29T10:58:35.949Z,69.05
2023-01-29T11:01:03.026Z,69.27
2023-01-29T11:03:32.394Z,69.00
2023-01-29T11:06:17.686Z,69.13
2023-01-29T11:09:01.570Z,68.59
2023-01-29T11:11:50.402Z,68.54
2023-01-29T11:14:24.808Z,68.75
2023-01-29T11:16:52.028Z,68.04
2023-01-29T11:19:35.806Z,68.02
2023-01-29T11:22:04.416Z,67.40
2023-01-29T11:24:31.317Z,67.89
2023-01-29T11:27:00.103Z,68.13
2023-01-29T11:29:45.115Z,67.70
2023-01-29T11:32:26.558Z,68.15
2023-01-29T11:35:03.186Z,67.85
2023-01-29T11:37:38.652Z,67.85
2023-01-29T11:40:32.938Z,68.09
2023-01-29T11:43:13.365Z,67.75
2023-01-29T11:45:40.769Z,67.99
2023-01-29T11:48:16.336Z,67.21
2023-01-29T11:50:44.255Z,67.35
2023-01-29T11:53:27.173Z,67.59
2023-01-29T11:55:55.975Z,67.63
2023-01-29T11:58:29.163Z,67.32
2023-01-29T12:00:58.471Z,67.33
2023-01-29T12:03:43.916Z,67.40
2023-01-29T12:06:24.111Z,67.97
2023-01-29T12:09:02.517Z,67.83
2023-01-29T12:11:32.116Z,68.10
2023-01-29T12:14:21.289Z,67.66
2023-01-29T12:16:58.926Z,66.73
2023-01-29T12:19:28.769Z,66.59
2023-01-29T12:22:03.876Z,66.51
2023-01-29T12:24:42.153Z,67.02
2023-01-29T12:27:25.472Z,66.69
2023-01-29T12:30:28.926Z,66.89
2023-01-29T12:33:03.196Z,67.01
2023-01-29T12:35:52.305Z,67.05
2023-01-29T12:38:23.341Z,67.38
2023-01-29T12:40:55.714Z,67.69
2023-01-29T12:43:32.538Z,67.77
2023-01-29T12:46:01.671Z,67.77
2023-01-29T12:48:33.879Z,67.97
2023-01-29T12:51:25.627Z,67.65
2023-01-29T12:54:00.801Z,67.54
2023-01-29T12:56:34.109Z,67.56
2023-01-29T12:59:09.989Z,67.40
2023-01-29T13:02:32.269Z,67.54
2023-01-29T13:05:18.918Z,67.32
2023-01-29T13:07:51.637Z,67.53
2023-01-29T13:10:24.693Z,67.58
2023-01-29T13:13:04.294Z,67.28
2023-01-29T13:15:39.852Z,67.24
2023-01-29T13:18:39.903Z,67.41
2023-01-29T13:21:11.650Z,67.75
2023-01-29T13:23:43.076Z,67.51
2023-01-29T13:26:10.578Z,67.81
2023-01-29T13:28:38.184Z,67.45
2023-01-29T13:31:24.340Z,67.46
2023-01-29T13:34:01.905Z,67.69
2023-01-29T13:36:30.960Z,67.14
2023-01-29T13:39:07.512Z,67.23
2023-01-29T13:41:40.166Z,67.05
2023-01-29T13:44:19.353Z,67.10
2023-01-29T13:46:57.084Z,67.16
2023-01-29T13:49:39.178Z,66.97
2023-01-29T13:52:33.639Z,66.89
2023-01-29T13:55:31.347Z,67.14
2023-01-29T13:58:00.354Z,67.25
2023-01-29T14:00:33.221Z,67.27
2023-01-29T14:03:08.772Z,67.36
2023-01-29T14:05:39.889Z,67.24
2023-01-29T14:08:35.093Z,67.58
2023-01-29T14:11:15.970Z,67.54
2023-01-29T14:13:47.008Z,67.55
2023-01-29T14:16:13.922Z,67.22
2023-01-29T14:18:59.162Z,67.60
2023-01-29T14:21:31.436Z,67.73
2023-01-29T14:24:17.245Z,67.53
2023-01-29T14:26:47.754Z,67.61
2023-01-29T14:29:33.786Z,67.57
2023-01-29T14:32:07.659Z,67.36
2023-01-29T14:34:41.681Z,67.42
2023-01-29T14:37:18.827Z,67.28
2023-01-29T14:39:57.829Z,67.21
2023-01-29T14:42:36.477Z,67.25
2023-01-29T14:45:09.280Z,67.34
2023-01-29T14:47:38.954Z,67.43
2023-01-29T14:50:33.643Z,67.52
2023-01-29T14:53:28.250Z,67.45
2023-01-29T14:56:14.278Z,67.60
2023-01-29T14:58:46.394Z,67.77
2023-01-29T15:01:22.767Z,67.69
2023-01-29T15:03:58.690Z,67.92
2023-01-29T15:06:46.513Z,67.89
2023-01-29T15:09:18.139Z,68.14
2023-01-29T15:11:56.082Z,68.10
2023-01-29T15:14:31.972Z,68.39
2023-01-29T15:17:21.725Z,68.23
2023-01-29T15:19:49.270Z,68.24
2023-01-29T15:22:18.674Z,68.60
2023-01-29T15:24:47.925Z,68.71
2023-01-29T15:27:20.140Z,68.52
2023-01-29T15:29:59.619Z,68.94
2023-01-29T15:32:40.480Z,68.85
2023-01-29T15:35:33.324Z,68.89
2023-01-29T15:38:13.388Z,69.31
2023-01-29T15:40:40.382Z,69.24
2023-01-29T15:43:32.116Z,69.51
2023-01-29T15:46:02.451Z,69.10
2023-01-29T15:48:34.843Z,69.53
2023-01-29T15:51:04.842Z,69.46
2023-01-29T15:53:37.964Z,69.16
2023-01-29T15:56:12.534Z,69.68
2023-01-29T15:58:40.475Z,69.62
2023-01-29T16:01:07.395Z,69.70
2023-01-29T16:03:36.158Z,69.45
2023-01-29T16:06:03.645Z,69.77
2023-01-29T16:08:30.683Z,69.64
2023-01-29T16:11:00.802Z,69.38
2023-01-29T16:13:37.178Z,69.89
2023-01-29T16:16:19.269Z,69.58
2023-01-29T16:18:59.481Z,69.75
2023-01-29T16:21:36.232Z,69.77
2023-01-29T16:24:09.784Z,69.74
2023-01-29T16:26:45.583Z,69.82
2023-01-29T16:29:15.906Z,69.90
2023-01-29T16:31:44.958Z,70.29
2023-01-29T16:34:25.267Z,70.58
2023-01-29T16:36:54.591Z,70.35
2023-01-29T16:39:34.625Z,70.44
2023-01-29T16:42:20.339Z,70.12
2023-01-29T16:45:01.127Z,70.65
2023-01-29T16:47:33.951Z,70.39
2023-01-29T16:50:17.711Z,70.44
2023-01-29T16:53:18.056Z,70.97
2023-01-29T16:55:47.375Z,70.92
2023-01-29T16:58:21.993Z,70.81
2023-01-29T17:01:15.039Z,70.52
2023-01-29T17:03:43.263Z,70.80
2023-01-29T17:06:21.425Z,71.34
2023-01-29T17:08:48.618Z,71.43
2023-01-29T17:11:36.422Z,71.11
2023-01-29T17:14:06.264Z,71.21
2023-01-29T17:16:34.112Z,71.09
2023-01-29T17:19:01.693Z,71.20
2023-01-29T17:21:31.445Z,71.15
2023-01-29T17:23:58.283Z,71.21
2023-01-29T17:26:25.128Z,71.11
2023-01-29T17:28:54.322Z,70.84
2023-01-29T17:31:21.258Z,70.91
2023-01-29T17:33:48.185Z,70.85
2023-01-29T17:36:17.084Z,70.73
2023-01-29T17:38:44.223Z,71.00
2023-01-29T17:41:26.307Z,70.54
2023-01-29T17:43:53.610Z,71.11
2023-01-29T17:46:21.075Z,70.66
2023-01-29T17:48:49.304Z,70.59
2023-01-29T17:51:17.921Z,70.90
2023-01-29T17:53:46.616Z,70.93
2023-01-29T17:56:17.093Z,71.17
2023-01-29T17:58:43.785Z,70.75
2023-01-29T18:01:10.591Z,71.05
2023-01-29T18:03:37.645Z,70.91
2023-01-29T18:06:07.833Z,70.94
2023-01-29T18:08:37.136Z,70.53
2023-01-29T18:11:05.077Z,71.27
2023-01-29T18:13:31.875Z,71.02
2023-01-29T18:15:58.775Z,70.69
2023-01-29T18:18:25.617Z,71.07
2023-01-29T18:20:52.511Z,71.11
2023-01-29T18:23:19.338Z,71.24
2023-01-29T18:25:46.140Z,71.30
2023-01-29T18:28:17.362Z,71.44
2023-01-29T18:30:47.784Z,71.36
2023-01-29T18:33:18.557Z,71.32
2023-01-29T18:35:45.795Z,71.47
2023-01-29T18:38:12.583Z,71.63
2023-01-29T18:40:39.389Z,71.08
2023-01-29T18:43:06.368Z,71.71
2023-01-29T18:45:33.238Z,71.46
2023-01-29T18:48:00.201Z,71.49
2023-01-29T18:50:27.349Z,71.63
2023-01-29T18:52:54.649Z,71.48
2023-01-29T18:55:22.462Z,71.32
2023-01-29T18:58:28.273Z,71.62
2023-01-29T19:00:40.973Z,71.56
2023-01-29T19:03:07.854Z,71.66
2023-01-29T19:05:34.751Z,71.36
2023-01-29T19:08:05.472Z,71.08
2023-01-29T19:10:32.820Z,71.34
2023-01-29T19:12:59.680Z,71.60
2023-01-29T19:15:26.865Z,71.51
2023-01-29T19:17:54.617Z,72.10
2023-01-29T19:20:21.622Z,72.17
2023-01-29T19:22:48.744Z,71.76
2023-01-29T19:25:16.464Z,72.04
2023-01-29T19:27:43.677Z,71.88
2023-01-29T19:30:12.910Z,71.96
2023-01-29T19:32:40.637Z,72.31
2023-01-29T19:35:07.596Z,72.37
2023-01-29T19:37:34.425Z,72.10
2023-01-29T19:40:01.266Z,72.45
2023-01-29T19:42:28.418Z,72.24
2023-01-29T19:44:55.395Z,72.71
2023-01-29T19:47:22.288Z,72.24
2023-01-29T19:49:49.244Z,72.39
2023-01-29T19:52:51.388Z,72.03
2023-01-29T19:55:20.869Z,72.46
2023-01-29T19:57:48.229Z,72.50
2023-01-29T20:00:17.593Z,72.59
2023-01-29T20:02:44.433Z,72.66
2023-01-29T20:05:13.042Z,72.55
2023-01-29T20:07:41.329Z,72.42
2023-01-29T20:10:11.438Z,72.25
2023-01-29T20:12:38.433Z,72.45
2023-01-29T20:15:05.665Z,72.29
2023-01-29T20:17:32.512Z,72.36
2023-01-29T20:19:59.277Z,72.57
2023-01-29T20:22:26.704Z,72.94
2023-01-29T20:24:53.583Z,72.98
2023-01-29T20:27:20.455Z,73.28
2023-01-29T20:29:47.759Z,72.75
2023-01-29T20:32:14.755Z,72.90
2023-01-29T20:34:41.865Z,73.35
2023-01-29T20:37:08.627Z,73.43
2023-01-29T20:39:35.551Z,73.02
2023-01-29T20:42:02.438Z,73.31
2023-01-29T20:44:29.226Z,73.02
2023-01-29T20:46:58.521Z,73.32
2023-01-29T20:49:28.452Z,73.05
2023-01-29T20:51:55.733Z,73.29
2023-01-29T20:54:22.805Z,73.12
2023-01-29T20:56:49.878Z,73.02
2023-01-29T20:59:16.955Z,73.11
2023-01-29T21:01:44.434Z,72.94
2023-01-29T21:04:11.329Z,72.92
2023-01-29T21:06:38.140Z,72.93
2023-01-29T21:09:04.992Z,73.05
2023-01-29T21:11:33.522Z,72.98
2023-01-29T21:14:01.890Z,73.12
2023-01-29T21:16:29.822Z,73.38
2023-01-29T21:18:58.088Z,73.37
2023-01-29T21:21:26.711Z,73.60
2023-01-29T21:23:54.345Z,73.09
2023-01-29T21:26:21.724Z,73.35
2023-01-29T21:28:48.659Z,73.49
2023-01-29T21:31:17.003Z,73.20
2023-01-29T21:33:44.245Z,73.59
2023-01-29T21:36:11.684Z,73.31
2023-01-29T21:38:39.152Z,73.31
2023-01-29T21:41:08.988Z,73.22
2023-01-29T21:43:36.153Z,73.45
2023-01-29T21:46:05.323Z,73.35
2023-01-29T21:48:32.249Z,73.65
2023-01-29T21:50:59.131Z,73.39
2023-01-29T21:53:25.960Z,73.57
2023-01-29T21:55:52.753Z,73.85
2023-01-29T21:58:20.865Z,73.57
2023-01-29T22:00:48.977Z,74.29
2023-01-29T22:03:15.922Z,74.06
2023-01-29T22:05:43.097Z,74.12
2023-01-29T22:08:10.017Z,73.88
2023-01-29T22:10:37.697Z,73.87
2023-01-29T22:13:04.863Z,73.86
2023-01-29T22:15:32.148Z,73.76
2023-01-29T22:17:58.934Z,74.21
2023-01-29T22:20:30.243Z,74.10
2023-01-29T22:22:59.014Z,74.04
2023-01-29T22:25:26.152Z,73.89
2023-01-29T22:27:53.222Z,73.79
2023-01-29T22:30:21.798Z,74.01
2023-01-29T22:32:49.294Z,74.04
2023-01-29T22:35:16.956Z,74.33
2023-01-29T22:37:44.046Z,74.41
2023-01-29T22:40:11.565Z,74.48
2023-01-29T22:42:38.378Z,74.50
2023-01-29T22:45:05.579Z,74.69
2023-01-29T22:47:33.714Z,74.88
2023-01-29T22:50:00.495Z,74.91
2023-01-29T22:52:28.511Z,74.70
2023-01-29T22:54:55.316Z,74.62
2023-01-29T22:57:22.208Z,74.80
2023-01-29T22:59:48.999Z,75.27
2023-01-29T23:02:15.821Z,74.92
2023-01-29T23:04:42.706Z,75.69
2023-01-29T23:07:09.559Z,75.15
2023-01-29T23:09:36.393Z,75.77
2023-01-29T23:12:03.173Z,75.49
2023-01-29T23:14:30.007Z,75.59
2023-01-29T23:16:57.383Z,75.82
2023-01-29T23:19:24.402Z,76.06
2023-01-29T23:24:32.321Z,75.93
2023-01-29T23:27:11.905Z,76.31
2023-01-29T23:29:38.792Z,76.41
2023-01-29T23:32:07.139Z,76.51
2023-01-29T23:34:34.039Z,76.57
2023-01-29T23:37:01.089Z,76.56
2023-01-29T23:39:27.840Z,76.71
2023-01-29T23:41:54.699Z,77.06
2023-01-29T23:44:21.549Z,76.52
2023-01-29T23:49:29.420Z,76.67
2023-01-29T23:51:56.273Z,77.05
2023-01-29T23:54:23.135Z,77.02
2023-01-29T23:56:49.993Z,77.33
2023-01-29T23:59:17.232Z,77.16
